Milfay, Oklahoma
Current Conditions -  °F | °C
As of 5:15 PM on Wednesday 17 Dec 2014 (Local Time) from KCQB Reporting Station
Light Rain Light Rain  
Wind Chill: 33°   Ceiling: 500
Heat Index: 37°   Visibility: 2.5mi
Dew Point: 37°   Wind: 6mph
Humidity: 100%   Direction: 100°E
Pressure: 30.17"   Gusts: NA
Location:  35.75°N, 96.57°W
Report Text: KCQB 172315Z AUTO 10005KT 2 1/2SM -RA OVC005 03/03 A3017 RMK AO2
Loading
Personal Weather Stations






























Interactive Weather Map New forecast layout! Learn more

10-Day Weather Forecast

Advertisements
Track Severe Weather on mobile